sensor_id;sensor_type;location;lat;lon;timestamp;P1;durP1;ratioP1;P2;durP2;ratioP2
76425;SDS011;65258;42.680;23.266;2022-12-29T00:01:48;48.33;;;26.00;;
76425;SDS011;65258;42.680;23.266;2022-12-29T00:04:14;47.92;;;25.90;;
76425;SDS011;65258;42.680;23.266;2022-12-29T00:06:40;53.30;;;28.13;;
76425;SDS011;65258;42.680;23.266;2022-12-29T00:09:06;49.47;;;26.70;;
76425;SDS011;65258;42.680;23.266;2022-12-29T00:11:31;52.22;;;26.60;;
76425;SDS011;65258;42.680;23.266;2022-12-29T00:13:57;46.40;;;24.92;;
76425;SDS011;65258;42.680;23.266;2022-12-29T00:16:41;46.08;;;25.30;;
76425;SDS011;65258;42.680;23.266;2022-12-29T00:19:08;47.17;;;25.40;;
76425;SDS011;65258;42.680;23.266;2022-12-29T00:24:38;46.47;;;24.27;;
76425;SDS011;65258;42.680;23.266;2022-12-29T00:27:18;47.65;;;22.58;;
76425;SDS011;65258;42.680;23.266;2022-12-29T00:30:04;42.83;;;23.80;;
76425;SDS011;65258;42.680;23.266;2022-12-29T00:32:52;48.17;;;25.08;;
76425;SDS011;65258;42.680;23.266;2022-12-29T00:35:39;45.95;;;24.63;;
76425;SDS011;65258;42.680;23.266;2022-12-29T00:38:28;44.33;;;24.27;;
76425;SDS011;65258;42.680;23.266;2022-12-29T00:41:14;43.72;;;24.60;;
76425;SDS011;65258;42.680;23.266;2022-12-29T00:43:59;50.80;;;27.77;;
76425;SDS011;65258;42.680;23.266;2022-12-29T00:46:32;50.17;;;25.27;;
76425;SDS011;65258;42.680;23.266;2022-12-29T00:49:06;43.13;;;23.75;;
76425;SDS011;65258;42.680;23.266;2022-12-29T00:51:52;47.75;;;25.38;;
76425;SDS011;65258;42.680;23.266;2022-12-29T00:54:19;43.42;;;23.80;;
76425;SDS011;65258;42.680;23.266;2022-12-29T00:56:48;42.33;;;23.65;;
76425;SDS011;65258;42.680;23.266;2022-12-29T00:59:15;47.55;;;25.05;;
76425;SDS011;65258;42.680;23.266;2022-12-29T01:01:42;41.90;;;21.85;;
76425;SDS011;65258;42.680;23.266;2022-12-29T01:04:08;38.58;;;20.13;;
76425;SDS011;65258;42.680;23.266;2022-12-29T01:06:34;32.67;;;19.00;;
76425;SDS011;65258;42.680;23.266;2022-12-29T01:09:01;44.55;;;22.42;;
76425;SDS011;65258;42.680;23.266;2022-12-29T01:11:46;41.88;;;22.70;;
76425;SDS011;65258;42.680;23.266;2022-12-29T01:14:12;40.92;;;24.75;;
76425;SDS011;65258;42.680;23.266;2022-12-29T01:16:38;34.63;;;21.10;;
76425;SDS011;65258;42.680;23.266;2022-12-29T01:19:03;38.45;;;21.25;;
76425;SDS011;65258;42.680;23.266;2022-12-29T01:21:29;35.00;;;21.35;;
76425;SDS011;65258;42.680;23.266;2022-12-29T01:23:55;38.80;;;20.33;;
76425;SDS011;65258;42.680;23.266;2022-12-29T01:26:20;38.85;;;19.90;;
76425;SDS011;65258;42.680;23.266;2022-12-29T01:28:46;28.30;;;16.90;;
76425;SDS011;65258;42.680;23.266;2022-12-29T01:31:12;33.45;;;18.60;;
76425;SDS011;65258;42.680;23.266;2022-12-29T01:33:39;33.15;;;19.33;;
76425;SDS011;65258;42.680;23.266;2022-12-29T01:36:06;34.65;;;18.45;;
76425;SDS011;65258;42.680;23.266;2022-12-29T01:38:34;38.22;;;19.98;;
76425;SDS011;65258;42.680;23.266;2022-12-29T01:41:01;33.88;;;19.23;;
76425;SDS011;65258;42.680;23.266;2022-12-29T01:46:04;33.08;;;17.65;;
76425;SDS011;65258;42.680;23.266;2022-12-29T01:48:39;34.08;;;19.15;;
76425;SDS011;65258;42.680;23.266;2022-12-29T01:51:05;34.25;;;19.17;;
76425;SDS011;65258;42.680;23.266;2022-12-29T01:53:32;31.45;;;18.35;;
76425;SDS011;65258;42.680;23.266;2022-12-29T01:56:01;33.30;;;18.58;;
76425;SDS011;65258;42.680;23.266;2022-12-29T01:58:32;32.53;;;17.70;;
76425;SDS011;65258;42.680;23.266;2022-12-29T02:01:02;30.85;;;17.02;;
76425;SDS011;65258;42.680;23.266;2022-12-29T02:03:28;32.40;;;17.23;;
76425;SDS011;65258;42.680;23.266;2022-12-29T02:05:58;29.42;;;16.50;;
76425;SDS011;65258;42.680;23.266;2022-12-29T02:08:36;30.83;;;16.73;;
76425;SDS011;65258;42.680;23.266;2022-12-29T02:11:03;31.00;;;17.10;;
76425;SDS011;65258;42.680;23.266;2022-12-29T02:13:32;36.45;;;17.35;;
76425;SDS011;65258;42.680;23.266;2022-12-29T02:35:08;29.45;;;16.48;;
76425;SDS011;65258;42.680;23.266;2022-12-29T02:38:05;30.10;;;15.52;;
76425;SDS011;65258;42.680;23.266;2022-12-29T02:40:56;28.90;;;15.07;;
76425;SDS011;65258;42.680;23.266;2022-12-29T02:46:26;29.95;;;16.88;;
76425;SDS011;65258;42.680;23.266;2022-12-29T02:54:43;32.35;;;15.32;;
76425;SDS011;65258;42.680;23.266;2022-12-29T02:59:45;29.27;;;15.88;;
76425;SDS011;65258;42.680;23.266;2022-12-29T03:02:35;31.00;;;15.75;;
76425;SDS011;65258;42.680;23.266;2022-12-29T03:05:16;29.00;;;16.58;;
76425;SDS011;65258;42.680;23.266;2022-12-29T03:10:48;29.40;;;16.73;;
76425;SDS011;65258;42.680;23.266;2022-12-29T03:19:26;29.88;;;15.88;;
76425;SDS011;65258;42.680;23.266;2022-12-29T03:21:57;30.70;;;16.10;;
76425;SDS011;65258;42.680;23.266;2022-12-29T03:24:55;25.10;;;15.95;;
76425;SDS011;65258;42.680;23.266;2022-12-29T03:27:25;30.90;;;16.25;;
76425;SDS011;65258;42.680;23.266;2022-12-29T03:29:56;27.13;;;16.08;;
76425;SDS011;65258;42.680;23.266;2022-12-29T03:32:27;28.75;;;15.07;;
76425;SDS011;65258;42.680;23.266;2022-12-29T03:35:03;28.20;;;15.00;;
76425;SDS011;65258;42.680;23.266;2022-12-29T03:37:32;27.50;;;15.77;;
76425;SDS011;65258;42.680;23.266;2022-12-29T03:40:03;31.33;;;16.58;;
76425;SDS011;65258;42.680;23.266;2022-12-29T03:42:31;30.63;;;16.85;;
76425;SDS011;65258;42.680;23.266;2022-12-29T03:44:59;31.65;;;16.05;;
76425;SDS011;65258;42.680;23.266;2022-12-29T03:47:25;30.42;;;15.77;;
76425;SDS011;65258;42.680;23.266;2022-12-29T03:49:51;32.15;;;16.42;;
76425;SDS011;65258;42.680;23.266;2022-12-29T03:52:17;27.58;;;15.93;;
76425;SDS011;65258;42.680;23.266;2022-12-29T03:54:44;29.02;;;16.48;;
76425;SDS011;65258;42.680;23.266;2022-12-29T03:57:11;32.88;;;15.95;;
76425;SDS011;65258;42.680;23.266;2022-12-29T03:59:59;31.10;;;17.70;;
76425;SDS011;65258;42.680;23.266;2022-12-29T04:02:24;31.23;;;15.20;;
76425;SDS011;65258;42.680;23.266;2022-12-29T04:04:51;31.92;;;17.10;;
76425;SDS011;65258;42.680;23.266;2022-12-29T04:07:16;32.40;;;16.67;;
76425;SDS011;65258;42.680;23.266;2022-12-29T04:09:42;26.15;;;15.63;;
76425;SDS011;65258;42.680;23.266;2022-12-29T04:12:12;31.50;;;16.83;;
76425;SDS011;65258;42.680;23.266;2022-12-29T04:14:39;33.08;;;16.63;;
76425;SDS011;65258;42.680;23.266;2022-12-29T04:17:05;36.95;;;16.67;;
76425;SDS011;65258;42.680;23.266;2022-12-29T04:19:32;31.55;;;16.05;;
76425;SDS011;65258;42.680;23.266;2022-12-29T04:21:57;30.38;;;16.50;;
76425;SDS011;65258;42.680;23.266;2022-12-29T04:24:23;31.58;;;15.70;;
76425;SDS011;65258;42.680;23.266;2022-12-29T04:26:49;32.63;;;16.08;;
76425;SDS011;65258;42.680;23.266;2022-12-29T04:29:29;31.50;;;17.77;;
76425;SDS011;65258;42.680;23.266;2022-12-29T04:32:27;34.88;;;18.42;;
76425;SDS011;65258;42.680;23.266;2022-12-29T04:34:54;36.45;;;19.00;;
76425;SDS011;65258;42.680;23.266;2022-12-29T04:37:20;35.65;;;18.35;;
76425;SDS011;65258;42.680;23.266;2022-12-29T04:39:45;31.27;;;17.42;;
76425;SDS011;65258;42.680;23.266;2022-12-29T04:42:11;35.90;;;19.45;;
76425;SDS011;65258;42.680;23.266;2022-12-29T04:44:36;35.10;;;18.42;;
76425;SDS011;65258;42.680;23.266;2022-12-29T04:47:09;31.63;;;17.15;;
76425;SDS011;65258;42.680;23.266;2022-12-29T04:49:57;36.58;;;17.13;;
76425;SDS011;65258;42.680;23.266;2022-12-29T04:52:41;33.88;;;17.95;;
76425;SDS011;65258;42.680;23.266;2022-12-29T04:55:09;36.55;;;20.20;;
76425;SDS011;65258;42.680;23.266;2022-12-29T04:57:35;33.97;;;20.10;;
76425;SDS011;65258;42.680;23.266;2022-12-29T05:00:00;39.25;;;20.65;;
76425;SDS011;65258;42.680;23.266;2022-12-29T05:02:26;34.17;;;18.42;;
76425;SDS011;65258;42.680;23.266;2022-12-29T05:07:19;36.97;;;19.00;;
76425;SDS011;65258;42.680;23.266;2022-12-29T05:09:46;39.60;;;20.00;;
76425;SDS011;65258;42.680;23.266;2022-12-29T05:12:12;35.25;;;19.83;;
76425;SDS011;65258;42.680;23.266;2022-12-29T05:14:46;37.15;;;20.58;;
76425;SDS011;65258;42.680;23.266;2022-12-29T05:20:39;43.65;;;22.88;;
76425;SDS011;65258;42.680;23.266;2022-12-29T05:23:05;41.47;;;23.02;;
76425;SDS011;65258;42.680;23.266;2022-12-29T05:25:30;41.38;;;22.73;;
76425;SDS011;65258;42.680;23.266;2022-12-29T05:28:07;37.00;;;21.48;;
76425;SDS011;65258;42.680;23.266;2022-12-29T05:30:48;35.95;;;19.75;;
76425;SDS011;65258;42.680;23.266;2022-12-29T05:33:17;42.10;;;20.50;;
76425;SDS011;65258;42.680;23.266;2022-12-29T05:35:44;37.45;;;19.65;;
76425;SDS011;65258;42.680;23.266;2022-12-29T05:38:10;39.50;;;20.30;;
76425;SDS011;65258;42.680;23.266;2022-12-29T05:40:36;33.47;;;19.92;;
76425;SDS011;65258;42.680;23.266;2022-12-29T05:43:06;39.03;;;20.50;;
76425;SDS011;65258;42.680;23.266;2022-12-29T05:45:42;33.10;;;19.15;;
76425;SDS011;65258;42.680;23.266;2022-12-29T05:48:23;37.38;;;20.92;;
76425;SDS011;65258;42.680;23.266;2022-12-29T05:51:09;34.05;;;19.48;;
76425;SDS011;65258;42.680;23.266;2022-12-29T05:53:54;36.38;;;19.60;;
76425;SDS011;65258;42.680;23.266;2022-12-29T05:56:21;36.00;;;19.92;;
76425;SDS011;65258;42.680;23.266;2022-12-29T05:58:54;32.97;;;20.02;;
76425;SDS011;65258;42.680;23.266;2022-12-29T06:01:21;39.42;;;20.52;;
76425;SDS011;65258;42.680;23.266;2022-12-29T06:03:46;37.95;;;22.05;;
76425;SDS011;65258;42.680;23.266;2022-12-29T06:06:12;38.17;;;20.17;;
76425;SDS011;65258;42.680;23.266;2022-12-29T06:08:37;33.20;;;20.67;;
76425;SDS011;65258;42.680;23.266;2022-12-29T06:11:03;36.17;;;19.25;;
76425;SDS011;65258;42.680;23.266;2022-12-29T06:13:29;36.17;;;19.83;;
76425;SDS011;65258;42.680;23.266;2022-12-29T06:15:56;39.83;;;20.55;;
76425;SDS011;65258;42.680;23.266;2022-12-29T06:18:24;35.75;;;20.48;;
76425;SDS011;65258;42.680;23.266;2022-12-29T06:20:49;42.30;;;21.40;;
76425;SDS011;65258;42.680;23.266;2022-12-29T06:23:17;41.15;;;20.00;;
76425;SDS011;65258;42.680;23.266;2022-12-29T06:25:44;38.30;;;20.48;;
76425;SDS011;65258;42.680;23.266;2022-12-29T06:28:11;40.92;;;21.00;;
76425;SDS011;65258;42.680;23.266;2022-12-29T06:30:37;38.15;;;20.48;;
76425;SDS011;65258;42.680;23.266;2022-12-29T06:33:03;39.63;;;20.98;;
76425;SDS011;65258;42.680;23.266;2022-12-29T06:35:29;38.03;;;20.48;;
76425;SDS011;65258;42.680;23.266;2022-12-29T06:37:55;38.17;;;20.10;;
76425;SDS011;65258;42.680;23.266;2022-12-29T06:40:20;36.75;;;21.15;;
76425;SDS011;65258;42.680;23.266;2022-12-29T06:43:05;36.58;;;21.38;;
76425;SDS011;65258;42.680;23.266;2022-12-29T06:45:49;40.80;;;22.55;;
76425;SDS011;65258;42.680;23.266;2022-12-29T06:48:14;38.00;;;22.10;;
76425;SDS011;65258;42.680;23.266;2022-12-29T06:50:40;36.42;;;20.45;;
76425;SDS011;65258;42.680;23.266;2022-12-29T06:53:05;34.85;;;19.33;;
76425;SDS011;65258;42.680;23.266;2022-12-29T06:55:31;35.92;;;19.88;;
76425;SDS011;65258;42.680;23.266;2022-12-29T06:57:57;42.40;;;21.00;;
76425;SDS011;65258;42.680;23.266;2022-12-29T07:00:23;39.50;;;21.65;;
76425;SDS011;65258;42.680;23.266;2022-12-29T07:02:50;36.25;;;19.60;;
76425;SDS011;65258;42.680;23.266;2022-12-29T07:05:16;28.80;;;15.50;;
76425;SDS011;65258;42.680;23.266;2022-12-29T07:07:42;27.75;;;14.73;;
76425;SDS011;65258;42.680;23.266;2022-12-29T07:10:07;22.50;;;14.25;;
76425;SDS011;65258;42.680;23.266;2022-12-29T07:12:33;21.45;;;12.50;;
76425;SDS011;65258;42.680;23.266;2022-12-29T07:14:58;21.58;;;12.90;;
76425;SDS011;65258;42.680;23.266;2022-12-29T07:17:24;20.77;;;13.13;;
76425;SDS011;65258;42.680;23.266;2022-12-29T07:19:50;22.42;;;13.57;;
76425;SDS011;65258;42.680;23.266;2022-12-29T07:22:15;26.45;;;13.10;;
76425;SDS011;65258;42.680;23.266;2022-12-29T07:24:41;22.45;;;13.30;;
76425;SDS011;65258;42.680;23.266;2022-12-29T07:27:08;18.30;;;12.55;;
76425;SDS011;65258;42.680;23.266;2022-12-29T07:29:34;24.73;;;14.05;;
76425;SDS011;65258;42.680;23.266;2022-12-29T07:32:01;24.13;;;13.95;;
76425;SDS011;65258;42.680;23.266;2022-12-29T07:34:26;24.45;;;14.73;;
76425;SDS011;65258;42.680;23.266;2022-12-29T07:36:52;24.38;;;14.27;;
76425;SDS011;65258;42.680;23.266;2022-12-29T07:39:17;21.48;;;13.60;;
76425;SDS011;65258;42.680;23.266;2022-12-29T07:41:43;20.58;;;14.00;;
76425;SDS011;65258;42.680;23.266;2022-12-29T07:44:15;21.08;;;13.75;;
76425;SDS011;65258;42.680;23.266;2022-12-29T07:46:55;22.10;;;13.73;;
76425;SDS011;65258;42.680;23.266;2022-12-29T07:49:20;21.23;;;13.35;;
76425;SDS011;65258;42.680;23.266;2022-12-29T07:51:46;23.08;;;13.52;;
76425;SDS011;65258;42.680;23.266;2022-12-29T07:54:11;22.42;;;12.93;;
76425;SDS011;65258;42.680;23.266;2022-12-29T07:56:37;22.60;;;14.32;;
76425;SDS011;65258;42.680;23.266;2022-12-29T07:59:03;22.90;;;13.52;;
76425;SDS011;65258;42.680;23.266;2022-12-29T08:01:28;22.77;;;13.13;;
76425;SDS011;65258;42.680;23.266;2022-12-29T08:03:54;21.90;;;13.48;;
76425;SDS011;65258;42.680;23.266;2022-12-29T08:06:19;19.63;;;12.52;;
76425;SDS011;65258;42.680;23.266;2022-12-29T08:08:45;19.52;;;12.95;;
76425;SDS011;65258;42.680;23.266;2022-12-29T08:11:11;27.13;;;14.70;;
76425;SDS011;65258;42.680;23.266;2022-12-29T08:13:36;19.90;;;12.43;;
76425;SDS011;65258;42.680;23.266;2022-12-29T08:16:02;21.15;;;12.18;;
76425;SDS011;65258;42.680;23.266;2022-12-29T08:18:27;22.52;;;12.85;;
76425;SDS011;65258;42.680;23.266;2022-12-29T08:20:53;21.10;;;12.95;;
76425;SDS011;65258;42.680;23.266;2022-12-29T08:23:18;25.90;;;15.38;;
76425;SDS011;65258;42.680;23.266;2022-12-29T08:25:44;21.92;;;13.95;;
76425;SDS011;65258;42.680;23.266;2022-12-29T08:28:09;25.27;;;16.20;;
76425;SDS011;65258;42.680;23.266;2022-12-29T08:30:36;24.25;;;15.30;;
76425;SDS011;65258;42.680;23.266;2022-12-29T08:33:02;24.67;;;14.95;;
76425;SDS011;65258;42.680;23.266;2022-12-29T08:35:27;21.08;;;13.02;;
76425;SDS011;65258;42.680;23.266;2022-12-29T08:37:53;21.98;;;13.57;;
76425;SDS011;65258;42.680;23.266;2022-12-29T08:40:18;20.02;;;12.18;;
76425;SDS011;65258;42.680;23.266;2022-12-29T08:42:44;20.63;;;13.38;;
76425;SDS011;65258;42.680;23.266;2022-12-29T08:45:10;17.98;;;12.60;;
76425;SDS011;65258;42.680;23.266;2022-12-29T08:47:36;21.77;;;12.75;;
76425;SDS011;65258;42.680;23.266;2022-12-29T08:50:01;19.63;;;12.90;;
76425;SDS011;65258;42.680;23.266;2022-12-29T08:52:27;19.30;;;12.52;;
76425;SDS011;65258;42.680;23.266;2022-12-29T08:54:52;20.13;;;13.07;;
76425;SDS011;65258;42.680;23.266;2022-12-29T08:57:20;20.50;;;12.98;;
76425;SDS011;65258;42.680;23.266;2022-12-29T09:00:09;21.50;;;13.05;;
76425;SDS011;65258;42.680;23.266;2022-12-29T09:02:35;19.25;;;13.90;;
76425;SDS011;65258;42.680;23.266;2022-12-29T09:05:00;21.33;;;13.02;;
76425;SDS011;65258;42.680;23.266;2022-12-29T09:07:26;22.00;;;13.60;;
76425;SDS011;65258;42.680;23.266;2022-12-29T09:09:51;27.63;;;14.30;;
76425;SDS011;65258;42.680;23.266;2022-12-29T09:12:17;20.30;;;12.23;;
76425;SDS011;65258;42.680;23.266;2022-12-29T09:14:43;21.38;;;13.60;;
76425;SDS011;65258;42.680;23.266;2022-12-29T09:17:10;18.90;;;11.98;;
76425;SDS011;65258;42.680;23.266;2022-12-29T09:19:54;18.27;;;12.60;;
76425;SDS011;65258;42.680;23.266;2022-12-29T09:22:20;19.75;;;12.02;;
76425;SDS011;65258;42.680;23.266;2022-12-29T09:24:45;22.70;;;13.50;;
76425;SDS011;65258;42.680;23.266;2022-12-29T09:27:11;20.70;;;13.15;;
76425;SDS011;65258;42.680;23.266;2022-12-29T09:29:36;22.85;;;12.75;;
76425;SDS011;65258;42.680;23.266;2022-12-29T09:32:02;19.67;;;12.18;;
76425;SDS011;65258;42.680;23.266;2022-12-29T09:34:27;20.83;;;13.15;;
76425;SDS011;65258;42.680;23.266;2022-12-29T09:36:53;20.33;;;12.48;;
76425;SDS011;65258;42.680;23.266;2022-12-29T09:39:19;19.42;;;11.82;;
76425;SDS011;65258;42.680;23.266;2022-12-29T09:42:00;20.67;;;12.32;;
76425;SDS011;65258;42.680;23.266;2022-12-29T09:47:16;19.67;;;12.68;;
76425;SDS011;65258;42.680;23.266;2022-12-29T09:49:45;22.55;;;11.95;;
76425;SDS011;65258;42.680;23.266;2022-12-29T09:52:15;19.75;;;11.98;;
76425;SDS011;65258;42.680;23.266;2022-12-29T09:57:27;20.42;;;12.02;;
76425;SDS011;65258;42.680;23.266;2022-12-29T09:59:59;24.08;;;14.23;;
76425;SDS011;65258;42.680;23.266;2022-12-29T10:02:42;22.35;;;13.70;;
76425;SDS011;65258;42.680;23.266;2022-12-29T10:05:21;25.85;;;13.13;;
76425;SDS011;65258;42.680;23.266;2022-12-29T10:08:05;22.70;;;13.50;;
76425;SDS011;65258;42.680;23.266;2022-12-29T10:10:40;20.55;;;12.85;;
76425;SDS011;65258;42.680;23.266;2022-12-29T10:13:21;28.13;;;15.40;;
76425;SDS011;65258;42.680;23.266;2022-12-29T10:24:15;36.25;;;20.80;;
76425;SDS011;65258;42.680;23.266;2022-12-29T10:26:43;32.13;;;20.38;;
76425;SDS011;65258;42.680;23.266;2022-12-29T10:31:43;32.55;;;18.00;;
76425;SDS011;65258;42.680;23.266;2022-12-29T10:37:00;32.00;;;18.85;;
76425;SDS011;65258;42.680;23.266;2022-12-29T10:39:31;34.90;;;19.50;;
76425;SDS011;65258;42.680;23.266;2022-12-29T10:42:29;32.92;;;20.33;;
76425;SDS011;65258;42.680;23.266;2022-12-29T10:45:02;34.13;;;19.17;;
76425;SDS011;65258;42.680;23.266;2022-12-29T10:47:29;31.33;;;18.30;;
76425;SDS011;65258;42.680;23.266;2022-12-29T10:50:01;28.88;;;18.02;;
76425;SDS011;65258;42.680;23.266;2022-12-29T10:52:28;31.35;;;18.55;;
76425;SDS011;65258;42.680;23.266;2022-12-29T10:57:32;29.58;;;17.88;;
76425;SDS011;65258;42.680;23.266;2022-12-29T11:00:01;33.35;;;18.98;;
76425;SDS011;65258;42.680;23.266;2022-12-29T11:02:46;30.20;;;17.70;;
76425;SDS011;65258;42.680;23.266;2022-12-29T11:08:46;32.00;;;19.60;;
76425;SDS011;65258;42.680;23.266;2022-12-29T11:11:21;33.20;;;18.90;;
76425;SDS011;65258;42.680;23.266;2022-12-29T11:13:55;31.77;;;18.35;;
76425;SDS011;65258;42.680;23.266;2022-12-29T11:16:33;28.77;;;17.02;;
76425;SDS011;65258;42.680;23.266;2022-12-29T11:19:00;34.95;;;18.10;;
76425;SDS011;65258;42.680;23.266;2022-12-29T11:21:28;31.98;;;17.70;;
76425;SDS011;65258;42.680;23.266;2022-12-29T11:23:57;35.42;;;17.48;;
76425;SDS011;65258;42.680;23.266;2022-12-29T11:26:24;30.17;;;18.13;;
76425;SDS011;65258;42.680;23.266;2022-12-29T11:31:45;34.22;;;18.70;;
76425;SDS011;65258;42.680;23.266;2022-12-29T11:34:20;36.22;;;19.00;;
76425;SDS011;65258;42.680;23.266;2022-12-29T11:37:05;34.45;;;20.23;;
76425;SDS011;65258;42.680;23.266;2022-12-29T11:39:42;32.22;;;18.23;;
76425;SDS011;65258;42.680;23.266;2022-12-29T11:42:15;28.23;;;18.13;;
76425;SDS011;65258;42.680;23.266;2022-12-29T11:44:46;33.50;;;19.70;;
76425;SDS011;65258;42.680;23.266;2022-12-29T11:47:19;33.55;;;19.33;;
76425;SDS011;65258;42.680;23.266;2022-12-29T11:49:52;33.28;;;18.45;;
76425;SDS011;65258;42.680;23.266;2022-12-29T11:52:21;35.92;;;19.92;;
76425;SDS011;65258;42.680;23.266;2022-12-29T11:54:51;29.67;;;19.05;;
76425;SDS011;65258;42.680;23.266;2022-12-29T11:57:18;30.50;;;19.25;;
76425;SDS011;65258;42.680;23.266;2022-12-29T11:59:53;34.03;;;19.95;;
76425;SDS011;65258;42.680;23.266;2022-12-29T12:02:32;36.92;;;20.75;;
76425;SDS011;65258;42.680;23.266;2022-12-29T12:05:12;37.28;;;19.15;;
76425;SDS011;65258;42.680;23.266;2022-12-29T12:07:40;29.92;;;17.50;;
76425;SDS011;65258;42.680;23.266;2022-12-29T12:10:14;33.60;;;18.58;;
76425;SDS011;65258;42.680;23.266;2022-12-29T12:12:47;32.15;;;18.88;;
76425;SDS011;65258;42.680;23.266;2022-12-29T12:15:21;32.03;;;18.98;;
76425;SDS011;65258;42.680;23.266;2022-12-29T12:18:08;33.35;;;17.95;;
76425;SDS011;65258;42.680;23.266;2022-12-29T12:20:40;34.10;;;19.55;;
76425;SDS011;65258;42.680;23.266;2022-12-29T12:26:21;27.00;;;17.20;;
76425;SDS011;65258;42.680;23.266;2022-12-29T12:29:02;31.33;;;17.40;;
76425;SDS011;65258;42.680;23.266;2022-12-29T12:31:48;34.20;;;18.85;;
76425;SDS011;65258;42.680;23.266;2022-12-29T12:34:25;35.85;;;19.90;;
76425;SDS011;65258;42.680;23.266;2022-12-29T12:42:13;30.88;;;17.77;;
76425;SDS011;65258;42.680;23.266;2022-12-29T13:06:26;27.30;;;15.73;;
76425;SDS011;65258;42.680;23.266;2022-12-29T13:12:24;27.67;;;16.27;;
76425;SDS011;65258;42.680;23.266;2022-12-29T13:20:41;29.00;;;16.63;;
76425;SDS011;65258;42.680;23.266;2022-12-29T13:31:41;31.13;;;16.63;;
76425;SDS011;65258;42.680;23.266;2022-12-29T13:34:23;32.70;;;17.65;;
76425;SDS011;65258;42.680;23.266;2022-12-29T13:37:00;35.40;;;18.85;;
76425;SDS011;65258;42.680;23.266;2022-12-29T13:39:33;33.53;;;17.05;;
76425;SDS011;65258;42.680;23.266;2022-12-29T13:42:02;28.63;;;16.75;;
76425;SDS011;65258;42.680;23.266;2022-12-29T13:46:58;28.70;;;15.60;;
76425;SDS011;65258;42.680;23.266;2022-12-29T13:49:28;30.48;;;16.55;;
76425;SDS011;65258;42.680;23.266;2022-12-29T13:51:55;25.02;;;15.02;;
76425;SDS011;65258;42.680;23.266;2022-12-29T14:05:26;38.22;;;21.52;;
76425;SDS011;65258;42.680;23.266;2022-12-29T14:07:58;37.88;;;22.05;;
76425;SDS011;65258;42.680;23.266;2022-12-29T14:10:36;39.20;;;21.55;;
76425;SDS011;65258;42.680;23.266;2022-12-29T14:13:10;37.92;;;18.45;;
76425;SDS011;65258;42.680;23.266;2022-12-29T14:15:40;38.38;;;22.08;;
76425;SDS011;65258;42.680;23.266;2022-12-29T14:18:18;40.65;;;23.00;;
76425;SDS011;65258;42.680;23.266;2022-12-29T14:21:07;47.20;;;26.45;;
76425;SDS011;65258;42.680;23.266;2022-12-29T14:23:43;50.40;;;26.83;;
76425;SDS011;65258;42.680;23.266;2022-12-29T14:26:18;52.72;;;28.27;;
76425;SDS011;65258;42.680;23.266;2022-12-29T14:29:16;43.63;;;25.10;;
76425;SDS011;65258;42.680;23.266;2022-12-29T14:31:54;38.72;;;23.73;;
76425;SDS011;65258;42.680;23.266;2022-12-29T14:44:48;38.67;;;21.65;;
76425;SDS011;65258;42.680;23.266;2022-12-29T14:47:36;43.13;;;24.05;;
76425;SDS011;65258;42.680;23.266;2022-12-29T14:50:13;37.90;;;23.55;;
76425;SDS011;65258;42.680;23.266;2022-12-29T15:00:57;42.47;;;23.45;;
76425;SDS011;65258;42.680;23.266;2022-12-29T15:03:35;44.65;;;22.95;;
76425;SDS011;65258;42.680;23.266;2022-12-29T15:06:09;48.05;;;24.77;;
76425;SDS011;65258;42.680;23.266;2022-12-29T15:08:37;44.20;;;25.95;;
76425;SDS011;65258;42.680;23.266;2022-12-29T15:13:44;41.55;;;24.02;;
76425;SDS011;65258;42.680;23.266;2022-12-29T15:16:31;43.22;;;25.17;;
76425;SDS011;65258;42.680;23.266;2022-12-29T15:19:01;45.60;;;23.95;;
76425;SDS011;65258;42.680;23.266;2022-12-29T15:21:30;40.38;;;22.75;;
76425;SDS011;65258;42.680;23.266;2022-12-29T15:23:57;45.25;;;25.60;;
76425;SDS011;65258;42.680;23.266;2022-12-29T15:26:23;48.75;;;26.27;;
76425;SDS011;65258;42.680;23.266;2022-12-29T15:29:01;47.20;;;24.23;;
76425;SDS011;65258;42.680;23.266;2022-12-29T15:31:26;49.80;;;24.23;;
76425;SDS011;65258;42.680;23.266;2022-12-29T15:33:52;41.30;;;22.45;;
76425;SDS011;65258;42.680;23.266;2022-12-29T15:36:23;39.58;;;21.85;;
76425;SDS011;65258;42.680;23.266;2022-12-29T15:38:51;43.30;;;22.08;;
76425;SDS011;65258;42.680;23.266;2022-12-29T15:41:39;44.00;;;22.77;;
76425;SDS011;65258;42.680;23.266;2022-12-29T15:44:28;41.35;;;22.77;;
76425;SDS011;65258;42.680;23.266;2022-12-29T15:47:06;48.42;;;24.48;;
76425;SDS011;65258;42.680;23.266;2022-12-29T15:49:42;53.25;;;26.02;;
76425;SDS011;65258;42.680;23.266;2022-12-29T15:52:09;50.88;;;26.50;;
76425;SDS011;65258;42.680;23.266;2022-12-29T15:54:36;47.47;;;25.92;;
76425;SDS011;65258;42.680;23.266;2022-12-29T15:57:03;51.30;;;26.63;;
76425;SDS011;65258;42.680;23.266;2022-12-29T15:59:32;46.90;;;27.05;;
76425;SDS011;65258;42.680;23.266;2022-12-29T16:01:59;56.25;;;28.10;;
76425;SDS011;65258;42.680;23.266;2022-12-29T16:04:27;47.72;;;26.73;;
76425;SDS011;65258;42.680;23.266;2022-12-29T16:06:56;46.97;;;27.60;;
76425;SDS011;65258;42.680;23.266;2022-12-29T16:09:31;52.33;;;27.20;;
76425;SDS011;65258;42.680;23.266;2022-12-29T16:11:59;60.28;;;30.52;;
76425;SDS011;65258;42.680;23.266;2022-12-29T16:14:54;51.97;;;28.27;;
76425;SDS011;65258;42.680;23.266;2022-12-29T16:17:27;60.25;;;31.83;;
76425;SDS011;65258;42.680;23.266;2022-12-29T16:19:59;59.53;;;31.42;;
76425;SDS011;65258;42.680;23.266;2022-12-29T16:22:32;63.30;;;32.75;;
76425;SDS011;65258;42.680;23.266;2022-12-29T16:25:02;52.75;;;29.35;;
76425;SDS011;65258;42.680;23.266;2022-12-29T16:27:32;55.83;;;30.30;;
76425;SDS011;65258;42.680;23.266;2022-12-29T16:30:06;53.92;;;28.23;;
76425;SDS011;65258;42.680;23.266;2022-12-29T16:32:45;55.53;;;29.67;;
76425;SDS011;65258;42.680;23.266;2022-12-29T16:35:22;61.25;;;30.42;;
76425;SDS011;65258;42.680;23.266;2022-12-29T16:40:33;66.00;;;32.97;;
76425;SDS011;65258;42.680;23.266;2022-12-29T16:43:04;73.38;;;32.83;;
76425;SDS011;65258;42.680;23.266;2022-12-29T16:50:39;64.25;;;33.92;;
76425;SDS011;65258;42.680;23.266;2022-12-29T16:55:53;64.53;;;34.63;;
76425;SDS011;65258;42.680;23.266;2022-12-29T16:58:20;56.78;;;34.42;;
76425;SDS011;65258;42.680;23.266;2022-12-29T17:00:48;62.85;;;34.25;;
76425;SDS011;65258;42.680;23.266;2022-12-29T17:03:13;58.75;;;32.38;;
76425;SDS011;65258;42.680;23.266;2022-12-29T17:05:40;65.63;;;34.33;;
76425;SDS011;65258;42.680;23.266;2022-12-29T17:08:19;65.88;;;34.67;;
76425;SDS011;65258;42.680;23.266;2022-12-29T17:10:50;61.80;;;33.92;;
76425;SDS011;65258;42.680;23.266;2022-12-29T17:13:36;66.80;;;34.40;;
76425;SDS011;65258;42.680;23.266;2022-12-29T17:16:03;59.95;;;33.58;;
76425;SDS011;65258;42.680;23.266;2022-12-29T17:18:30;73.07;;;37.65;;
76425;SDS011;65258;42.680;23.266;2022-12-29T17:20:55;64.22;;;34.53;;
76425;SDS011;65258;42.680;23.266;2022-12-29T17:23:21;61.17;;;35.22;;